Time;durP1;ratioP1;P1;durP2;ratioP2;P2;SDS_P1;SDS_P2;PMS_P1;PMS_P2;Temp;Humidity;BMP_temperature;BMP_pressure;BME280_temperature;BME280_humidity;BME280_pressure;Samples;Min_cycle;Max_cycle;Signal;HPM_P1;HPM_P2
2021/06/25 00:02:16;;;;;;;32.13;18.65;;;13.80;76.70;;;;;;4996703;28;20120;-82
2021/06/25 00:04:43;;;;;;;26.98;18.25;;;13.80;76.70;;;;;;4996277;28;20045;-83
2021/06/25 00:07:10;;;;;;;25.25;16.73;;;13.80;76.70;;;;;;5013752;28;20046;-82
2021/06/25 00:09:37;;;;;;;25.75;17.17;;;13.70;76.70;;;;;;5014071;28;20057;-82
2021/06/25 00:12:08;;;;;;;23.15;17.80;;;13.70;76.80;;;;;;4996727;28;20058;-82
2021/06/25 00:14:36;;;;;;;22.60;16.50;;;13.70;76.80;;;;;;4996651;28;20057;-83
2021/06/25 00:17:04;;;;;;;21.10;16.52;;;13.70;76.90;;;;;;4996335;28;20054;-83
2021/06/25 00:19:31;;;;;;;27.15;17.45;;;13.70;76.90;;;;;;4996074;28;20060;-82
2021/06/25 00:21:58;;;;;;;23.13;17.05;;;13.70;77.00;;;;;;4996156;28;20049;-85
2021/06/25 00:24:25;;;;;;;24.13;16.00;;;13.60;77.00;;;;;;4996291;28;20053;-82
2021/06/25 00:26:53;;;;;;;25.55;15.80;;;13.60;77.10;;;;;;4996039;28;20046;-83
2021/06/25 00:29:20;;;;;;;23.35;15.55;;;13.60;77.10;;;;;;4996217;28;20049;-84
2021/06/25 00:31:48;;;;;;;24.73;15.90;;;13.60;77.10;;;;;;4995751;28;20057;-81
2021/06/25 00:34:15;;;;;;;23.60;16.15;;;13.60;77.20;;;;;;5013673;28;20129;-82
2021/06/25 00:36:42;;;;;;;22.45;14.40;;;13.50;77.30;;;;;;4996352;28;20078;-83
2021/06/25 00:39:09;;;;;;;20.88;15.15;;;13.50;77.40;;;;;;5013620;28;20604;-83
2021/06/25 00:41:36;;;;;;;23.02;15.38;;;13.50;77.40;;;;;;4995915;28;20042;-82
2021/06/25 00:44:04;;;;;;;21.48;15.57;;;13.50;77.50;;;;;;4996178;28;20050;-83
2021/06/25 00:46:32;;;;;;;23.67;14.70;;;13.50;77.50;;;;;;5013351;28;20060;-83
2021/06/25 00:49:00;;;;;;;25.38;15.32;;;13.40;77.60;;;;;;4996367;28;20057;-82
2021/06/25 00:51:27;;;;;;;22.52;14.45;;;13.40;77.60;;;;;;4995877;28;20495;-82
2021/06/25 00:53:54;;;;;;;19.73;13.90;;;13.40;77.60;;;;;;4996127;28;20054;-82
2021/06/25 00:56:21;;;;;;;22.27;15.15;;;13.40;77.70;;;;;;4995679;28;20475;-82
2021/06/25 00:58:50;;;;;;;20.05;14.43;;;13.40;77.70;;;;;;4995719;28;20049;-82
2021/06/25 01:01:17;;;;;;;19.15;13.90;;;13.40;77.80;;;;;;4995685;28;20054;-84
2021/06/25 01:03:44;;;;;;;18.98;13.57;;;13.40;77.90;;;;;;4995824;28;20046;-82
2021/06/25 01:06:12;;;;;;;18.23;12.63;;;13.40;77.90;;;;;;4995927;28;20065;-82
2021/06/25 01:08:42;;;;;;;18.17;13.48;;;13.40;77.90;;;;;;4995671;28;20053;-84
2021/06/25 01:11:09;;;;;;;20.63;13.40;;;13.30;78.00;;;;;;5015343;28;20048;-83
2021/06/25 01:13:40;;;;;;;18.48;13.07;;;13.30;78.00;;;;;;4999699;28;20056;-82
2021/06/25 01:16:08;;;;;;;18.92;12.73;;;13.30;78.00;;;;;;5016695;28;20098;-83
2021/06/25 01:18:36;;;;;;;18.13;12.52;;;13.30;78.10;;;;;;4999938;28;20100;-84
2021/06/25 01:21:04;;;;;;;17.88;12.52;;;13.30;78.10;;;;;;4999754;28;20052;-82
2021/06/25 01:23:36;;;;;;;23.30;12.27;;;13.30;78.10;;;;;;4999601;28;20054;-82
2021/06/25 01:26:03;;;;;;;16.63;12.82;;;13.30;78.10;;;;;;4999622;28;20046;-82
2021/06/25 01:28:30;;;;;;;18.20;11.75;;;13.40;78.10;;;;;;4999082;28;20038;-83
2021/06/25 01:30:58;;;;;;;16.75;11.63;;;13.30;78.10;;;;;;5016360;28;20038;-82
2021/06/25 01:33:28;;;;;;;18.33;12.43;;;13.30;78.10;;;;;;4999350;28;20060;-82
2021/06/25 01:35:56;;;;;;;17.27;11.38;;;13.30;78.10;;;;;;4999322;28;20046;-83
2021/06/25 01:38:25;;;;;;;15.27;11.43;;;13.30;78.20;;;;;;4999675;28;20053;-82
2021/06/25 01:40:53;;;;;;;17.85;10.75;;;13.20;78.30;;;;;;5016605;28;20045;-83
2021/06/25 01:43:23;;;;;;;18.65;11.80;;;13.20;78.40;;;;;;4999085;28;20046;-82
2021/06/25 01:45:51;;;;;;;17.17;11.80;;;13.30;78.50;;;;;;4998989;28;20065;-81
2021/06/25 01:48:18;;;;;;;16.80;12.50;;;13.20;78.60;;;;;;4999126;28;20045;-82
2021/06/25 01:50:45;;;;;;;16.38;11.50;;;13.20;78.70;;;;;;4998891;28;20053;-81
2021/06/25 01:53:17;;;;;;;19.38;12.30;;;13.20;78.80;;;;;;5016467;28;20042;-84
2021/06/25 01:55:46;;;;;;;17.73;12.45;;;13.20;78.90;;;;;;4998879;28;20046;-82
2021/06/25 01:58:19;;;;;;;16.70;11.20;;;13.20;79.00;;;;;;4998851;28;20050;-82
2021/06/25 02:01:12;;;;;;;17.88;11.88;;;13.30;79.10;;;;;;4998390;28;20057;-81
2021/06/25 02:03:40;;;;;;;16.83;11.32;;;13.30;79.10;;;;;;4998984;28;20412;-82
2021/06/25 02:06:07;;;;;;;16.30;11.35;;;13.30;79.20;;;;;;4998791;28;20053;-83
2021/06/25 02:08:35;;;;;;;16.58;10.35;;;13.40;79.30;;;;;;4998734;28;20057;-82
2021/06/25 02:11:02;;;;;;;18.83;11.40;;;13.40;79.40;;;;;;4998677;28;20129;-82
2021/06/25 02:13:29;;;;;;;14.40;10.43;;;13.40;79.40;;;;;;5015821;28;20057;-82
2021/06/25 02:15:57;;;;;;;14.65;10.80;;;13.40;79.50;;;;;;4998316;28;20054;-81
2021/06/25 02:18:24;;;;;;;15.90;11.07;;;13.40;79.60;;;;;;4998502;28;20049;-83
2021/06/25 02:20:51;;;;;;;17.27;10.20;;;13.50;79.80;;;;;;4998424;28;20415;-82
2021/06/25 02:23:18;;;;;;;14.48;10.65;;;13.50;79.80;;;;;;4997463;28;20414;-83
2021/06/25 02:25:45;;;;;;;18.83;10.77;;;13.50;79.90;;;;;;4998663;28;20049;-84
2021/06/25 02:28:12;;;;;;;14.55;10.95;;;13.60;80.00;;;;;;4997952;28;20053;-84
2021/06/25 02:30:40;;;;;;;14.43;10.55;;;13.60;80.10;;;;;;4997896;28;20072;-83
2021/06/25 02:33:07;;;;;;;19.85;10.52;;;13.60;80.10;;;;;;5015556;28;20056;-83
2021/06/25 02:35:34;;;;;;;13.07;10.00;;;13.60;80.20;;;;;;4998045;28;20046;-83
2021/06/25 02:38:01;;;;;;;14.50;10.43;;;13.70;80.20;;;;;;4998360;28;20523;-81
2021/06/25 02:40:28;;;;;;;14.98;10.30;;;13.70;80.30;;;;;;4998052;28;20046;-82
2021/06/25 02:42:56;;;;;;;14.02;9.43;;;13.80;80.30;;;;;;4997816;28;20050;-83
2021/06/25 02:45:23;;;;;;;13.32;9.20;;;13.80;80.30;;;;;;4998007;28;20045;-84
2021/06/25 02:47:50;;;;;;;13.07;8.95;;;13.90;80.30;;;;;;4997756;28;20056;-86
2021/06/25 02:50:17;;;;;;;17.15;9.27;;;13.90;80.30;;;;;;5015245;28;20050;-84
2021/06/25 02:52:45;;;;;;;13.48;9.05;;;13.90;80.30;;;;;;4997944;28;20056;-82
2021/06/25 02:55:12;;;;;;;11.93;8.93;;;13.90;80.30;;;;;;5015179;28;20129;-83
2021/06/25 02:57:40;;;;;;;18.67;8.40;;;13.90;80.40;;;;;;4997589;28;20066;-85
2021/06/25 03:00:16;;;;;;;12.50;7.82;;;14.00;80.40;;;;;;4997813;28;20057;-83
2021/06/25 03:02:43;;;;;;;10.50;7.78;;;14.00;80.50;;;;;;4997526;28;20411;-82
2021/06/25 03:05:13;;;;;;;13.68;7.97;;;14.00;80.60;;;;;;4997732;28;20050;-84
2021/06/25 03:07:40;;;;;;;14.07;8.18;;;14.00;80.60;;;;;;4997679;28;20049;-83
2021/06/25 03:10:08;;;;;;;12.32;8.25;;;14.10;80.60;;;;;;4997866;28;20050;-84
2021/06/25 03:12:36;;;;;;;10.65;7.32;;;14.10;80.60;;;;;;4997330;28;20045;-82
2021/06/25 03:15:05;;;;;;;10.63;7.88;;;14.10;80.70;;;;;;4997598;28;20377;-82
2021/06/25 03:17:32;;;;;;;12.43;7.75;;;14.10;80.80;;;;;;4997389;28;20050;-85
2021/06/25 03:19:59;;;;;;;16.08;8.45;;;14.10;80.70;;;;;;4997456;28;20411;-82
2021/06/25 03:22:26;;;;;;;14.00;7.50;;;14.10;80.70;;;;;;5015005;28;20058;-83
2021/06/25 03:24:53;;;;;;;14.07;8.23;;;14.20;80.80;;;;;;4997414;28;20061;-83
2021/06/25 03:27:21;;;;;;;13.35;8.48;;;14.20;80.80;;;;;;4997104;28;20053;-82
2021/06/25 03:29:47;;;;;;;16.23;8.65;;;14.20;80.80;;;;;;5014255;28;20056;-84
2021/06/25 03:32:15;;;;;;;19.65;8.18;;;14.20;80.80;;;;;;5014139;28;20052;-84
2021/06/25 03:34:43;;;;;;;12.43;7.70;;;14.30;80.90;;;;;;4996899;28;20046;-84
2021/06/25 03:37:10;;;;;;;11.30;7.80;;;14.30;80.80;;;;;;4997080;28;20058;-83
2021/06/25 03:39:37;;;;;;;11.85;8.20;;;14.30;80.90;;;;;;4997100;28;20054;-83
2021/06/25 03:42:05;;;;;;;12.35;7.45;;;14.30;80.90;;;;;;4996503;28;20061;-84
2021/06/25 03:44:32;;;;;;;14.13;8.75;;;14.20;80.90;;;;;;4997349;28;20050;-86
2021/06/25 03:46:59;;;;;;;20.20;8.75;;;14.30;80.90;;;;;;4997241;28;20050;-82
2021/06/25 03:49:26;;;;;;;15.20;8.65;;;14.30;80.90;;;;;;4996737;28;20060;-84
2021/06/25 03:51:53;;;;;;;11.48;7.50;;;14.30;80.90;;;;;;4996942;28;20046;-81
2021/06/25 03:54:20;;;;;;;14.07;8.48;;;14.30;80.90;;;;;;5014138;28;20042;-84
2021/06/25 03:56:47;;;;;;;13.25;8.00;;;14.30;80.80;;;;;;5013948;28;20049;-83
2021/06/25 03:59:14;;;;;;;10.65;7.47;;;14.30;80.80;;;;;;4996598;28;20062;-83
2021/06/25 04:01:42;;;;;;;14.18;7.65;;;14.40;80.80;;;;;;4996790;28;20058;-86
2021/06/25 04:04:09;;;;;;;11.55;8.20;;;14.40;80.80;;;;;;4996179;28;20054;-83
2021/06/25 04:06:36;;;;;;;12.90;7.95;;;14.40;80.80;;;;;;4996682;28;20058;-85
2021/06/25 04:09:04;;;;;;;11.65;7.35;;;14.40;80.70;;;;;;4996333;28;20046;-84
2021/06/25 04:11:32;;;;;;;11.82;8.40;;;14.40;80.70;;;;;;4996207;28;20042;-83
2021/06/25 04:14:00;;;;;;;10.80;7.25;;;14.40;80.70;;;;;;4996441;28;20045;-84
2021/06/25 04:16:27;;;;;;;13.45;8.07;;;14.40;80.70;;;;;;4996635;28;20050;-83
2021/06/25 04:18:54;;;;;;;11.48;7.22;;;14.40;80.70;;;;;;4996253;28;20570;-83
2021/06/25 04:21:22;;;;;;;13.60;8.60;;;14.40;80.70;;;;;;4996505;28;20050;-84
2021/06/25 04:23:49;;;;;;;11.90;8.52;;;14.40;80.70;;;;;;5013739;28;20054;-84
2021/06/25 04:26:17;;;;;;;12.27;8.25;;;14.40;80.70;;;;;;5013855;28;20141;-82
2021/06/25 04:28:44;;;;;;;12.77;7.80;;;14.40;80.70;;;;;;4995883;28;20068;-82
2021/06/25 04:31:11;;;;;;;13.13;7.85;;;14.40;80.70;;;;;;4995771;28;20484;-85
2021/06/25 04:33:39;;;;;;;15.00;7.57;;;14.40;80.70;;;;;;5013378;28;20046;-85
2021/06/25 04:36:06;;;;;;;11.90;7.63;;;14.40;80.70;;;;;;4996253;28;20061;-85
2021/06/25 04:38:33;;;;;;;13.55;7.80;;;14.40;80.70;;;;;;5013292;28;20060;-83
2021/06/25 04:41:02;;;;;;;13.13;8.15;;;14.50;80.70;;;;;;4995961;28;20052;-83
2021/06/25 04:43:29;;;;;;;13.43;7.97;;;14.50;80.70;;;;;;4992680;28;20061;-84
2021/06/25 04:45:59;;;;;;;13.98;7.97;;;14.50;80.70;;;;;;4993443;28;20050;-86
2021/06/25 04:48:27;;;;;;;12.40;7.90;;;14.50;80.70;;;;;;4996001;28;20459;-82
2021/06/25 04:50:54;;;;;;;10.80;7.82;;;14.50;80.70;;;;;;4995973;28;20156;-85
2021/06/25 04:53:22;;;;;;;16.85;8.05;;;14.50;80.70;;;;;;4995927;28;20419;-84
2021/06/25 04:55:49;;;;;;;14.80;7.90;;;14.50;80.60;;;;;;4996049;28;20060;-83
2021/06/25 04:58:17;;;;;;;14.65;8.63;;;14.50;80.60;;;;;;4995628;28;20058;-83
2021/06/25 05:00:46;;;;;;;9.80;7.15;;;14.50;80.70;;;;;;4995908;28;20590;-84
2021/06/25 05:03:14;;;;;;;12.98;7.95;;;14.50;80.70;;;;;;5013531;28;20125;-84
2021/06/25 05:05:45;;;;;;;12.18;7.63;;;14.50;80.70;;;;;;4995950;28;20056;-86
2021/06/25 05:08:12;;;;;;;12.90;8.27;;;14.60;80.80;;;;;;4995668;28;20046;-85
2021/06/25 05:10:39;;;;;;;14.15;9.05;;;14.60;80.70;;;;;;4995726;28;20422;-84
2021/06/25 05:13:07;;;;;;;13.85;8.68;;;14.60;80.70;;;;;;4995661;28;20133;-84
2021/06/25 05:15:34;;;;;;;14.43;9.05;;;14.60;80.70;;;;;;5013097;28;20085;-83
2021/06/25 05:18:19;;;;;;;16.95;9.00;;;14.60;80.60;;;;;;4995955;28;20080;-83
2021/06/25 05:21:06;;;;;;;;;;;14.60;80.60;;;;;;4998729;28;20061;-83
2021/06/25 05:23:34;;;;;;;15.82;9.50;;;14.60;80.50;;;;;;4995303;28;20299;-83
2021/06/25 05:26:02;;;;;;;15.27;10.18;;;14.60;80.60;;;;;;4995675;28;20046;-83
2021/06/25 05:28:29;;;;;;;15.50;8.90;;;14.60;80.60;;;;;;4995389;28;20038;-88
2021/06/25 05:30:56;;;;;;;13.15;9.23;;;14.60;80.50;;;;;;4995476;28;20061;-83
2021/06/25 05:33:23;;;;;;;12.50;9.88;;;14.60;80.50;;;;;;4995537;28;20046;-85
2021/06/25 05:35:51;;;;;;;12.70;9.65;;;14.60;80.50;;;;;;5013187;28;20057;-86
2021/06/25 05:38:18;;;;;;;12.73;9.55;;;14.60;80.50;;;;;;4995538;28;20064;-83
2021/06/25 05:40:46;;;;;;;13.82;10.05;;;14.60;80.50;;;;;;4995597;28;20042;-84
2021/06/25 05:43:13;;;;;;;14.95;10.23;;;14.60;80.60;;;;;;4995460;28;20046;-83
2021/06/25 05:45:41;;;;;;;20.45;10.68;;;14.60;80.60;;;;;;4995612;28;20563;-83
2021/06/25 05:48:09;;;;;;;17.35;10.57;;;14.60;80.80;;;;;;5012731;28;20069;-84
2021/06/25 05:50:37;;;;;;;14.05;10.65;;;14.60;80.90;;;;;;4995550;28;20136;-84
2021/06/25 05:53:06;;;;;;;14.15;10.70;;;14.60;81.00;;;;;;4995073;28;20056;-84
2021/06/25 05:55:33;;;;;;;16.17;10.93;;;14.60;81.00;;;;;;5012550;28;20488;-86
2021/06/25 05:58:01;;;;;;;16.85;11.75;;;14.60;81.10;;;;;;4998465;28;20065;-85
2021/06/25 06:00:28;;;;;;;22.25;13.10;;;14.60;81.10;;;;;;4999234;28;20144;-83
2021/06/25 06:03:00;;;;;;;16.15;11.82;;;14.60;81.20;;;;;;4998973;28;20049;-86
2021/06/25 06:05:27;;;;;;;19.65;13.13;;;14.60;81.20;;;;;;4998104;28;20053;-84
2021/06/25 06:07:56;;;;;;;17.50;13.68;;;14.60;81.20;;;;;;4998174;28;20057;-83
2021/06/25 06:10:23;;;;;;;23.48;14.18;;;14.60;81.20;;;;;;4998988;28;20060;-85
2021/06/25 06:12:50;;;;;;;21.48;14.68;;;14.60;81.20;;;;;;4998794;28;20048;-84
2021/06/25 06:15:17;;;;;;;19.08;14.13;;;14.60;81.20;;;;;;4998998;28;20050;-85
2021/06/25 06:17:48;;;;;;;22.88;14.50;;;14.60;81.30;;;;;;4998774;28;20065;-87
2021/06/25 06:20:22;;;;;;;20.48;13.48;;;14.60;81.30;;;;;;4998640;28;20049;-86
2021/06/25 06:31:21;;;;;;;19.45;13.75;;;14.60;81.50;;;;;;5007847;28;20049;-85
2021/06/25 06:33:59;;;;;;;21.23;15.02;;;14.60;81.50;;;;;;5015287;28;20042;-88
2021/06/25 06:36:32;;;;;;;21.58;14.02;;;14.60;81.50;;;;;;4997906;28;20054;-85
2021/06/25 06:39:02;;;;;;;16.83;13.38;;;14.70;81.60;;;;;;4998368;28;20052;-88
2021/06/25 06:41:30;;;;;;;16.85;14.07;;;14.70;81.60;;;;;;4997695;28;20132;-85
2021/06/25 06:43:58;;;;;;;20.13;13.93;;;14.70;81.60;;;;;;4998009;28;20506;-85
2021/06/25 06:46:25;;;;;;;19.13;14.40;;;14.80;81.60;;;;;;5015158;28;20050;-84
2021/06/25 06:48:53;;;;;;;18.77;14.13;;;14.80;81.60;;;;;;4997457;28;20519;-85
2021/06/25 06:51:21;;;;;;;18.90;14.23;;;14.80;81.60;;;;;;4997980;28;20046;-85
2021/06/25 06:53:52;;;;;;;20.55;14.35;;;14.90;81.60;;;;;;4997811;28;20101;-84
2021/06/25 06:56:21;;;;;;;17.80;13.18;;;14.90;81.60;;;;;;4997331;28;20132;-86
2021/06/25 06:58:51;;;;;;;20.75;13.88;;;14.90;81.50;;;;;;5014865;28;20058;-85
2021/06/25 07:01:18;;;;;;;17.17;13.48;;;14.90;81.50;;;;;;4997658;28;20586;-84
2021/06/25 07:04:06;;;;;;;16.30;13.40;;;14.90;81.50;;;;;;5000226;28;20411;-86
2021/06/25 07:06:36;;;;;;;19.52;14.38;;;15.00;81.30;;;;;;5002667;28;20071;-84
2021/06/25 07:09:03;;;;;;;18.58;14.10;;;15.00;81.10;;;;;;5017725;28;20056;-84
2021/06/25 07:11:30;;;;;;;18.70;14.10;;;15.10;81.10;;;;;;5016207;28;20052;-84
2021/06/25 07:13:57;;;;;;;20.08;14.38;;;15.10;81.00;;;;;;5014185;28;20057;-84
2021/06/25 07:16:27;;;;;;;19.05;14.85;;;15.20;80.90;;;;;;5015903;28;20107;-85
2021/06/25 07:18:54;;;;;;;17.33;12.90;;;15.20;80.90;;;;;;5015929;28;20050;-86
2021/06/25 07:21:21;;;;;;;21.05;15.13;;;15.20;80.70;;;;;;5015624;28;20430;-85
2021/06/25 07:23:48;;;;;;;18.65;13.88;;;15.20;80.60;;;;;;5015023;28;20062;-85
2021/06/25 07:26:17;;;;;;;21.17;15.68;;;15.30;80.50;;;;;;4996057;28;20050;-84
2021/06/25 07:28:45;;;;;;;21.23;14.55;;;15.30;80.50;;;;;;4997885;28;20073;-86
2021/06/25 07:31:13;;;;;;;19.27;14.07;;;15.30;80.30;;;;;;5003708;28;20136;-84
2021/06/25 07:33:40;;;;;;;20.90;15.00;;;15.40;80.20;;;;;;5013075;28;20049;-83
2021/06/25 07:36:07;;;;;;;22.83;15.68;;;15.40;80.00;;;;;;4995834;28;20052;-86
2021/06/25 07:38:34;;;;;;;19.60;14.80;;;15.40;79.90;;;;;;4995936;28;20046;-84
2021/06/25 07:41:02;;;;;;;19.25;15.50;;;15.50;79.90;;;;;;4995933;28;20490;-85
2021/06/25 07:43:29;;;;;;;17.70;13.95;;;15.50;79.80;;;;;;4995946;28;20060;-85
2021/06/25 07:45:57;;;;;;;19.25;14.32;;;15.60;79.70;;;;;;4995814;28;20068;-85
2021/06/25 07:48:24;;;;;;;17.02;13.38;;;15.70;79.50;;;;;;4995735;28;20136;-85
2021/06/25 07:50:51;;;;;;;17.08;13.60;;;15.80;79.30;;;;;;4995971;28;20065;-85
2021/06/25 07:53:18;;;;;;;17.92;11.57;;;15.80;79.20;;;;;;4995831;28;20050;-86
2021/06/25 07:55:45;;;;;;;16.48;12.25;;;15.90;78.90;;;;;;4995943;28;20073;-85
2021/06/25 07:58:16;;;;;;;19.45;12.45;;;15.90;78.50;;;;;;4987721;28;20140;-84
2021/06/25 08:00:43;;;;;;;16.23;12.63;;;15.90;78.20;;;;;;4995200;28;20050;-86
2021/06/25 08:03:11;;;;;;;19.85;12.50;;;15.90;77.90;;;;;;4995845;28;20124;-86
2021/06/25 08:05:39;;;;;;;16.73;11.07;;;16.00;77.90;;;;;;4995667;28;20105;-85
2021/06/25 08:08:06;;;;;;;15.35;11.02;;;16.00;77.70;;;;;;4993197;28;20048;-86
2021/06/25 08:10:34;;;;;;;13.88;11.73;;;16.10;77.50;;;;;;4995545;28;20562;-85
2021/06/25 08:13:02;;;;;;;15.07;11.80;;;16.20;77.10;;;;;;4995769;28;20046;-87
2021/06/25 08:15:30;;;;;;;14.63;10.93;;;16.20;76.90;;;;;;4994939;28;20423;-86
2021/06/25 08:18:00;;;;;;;14.20;11.02;;;16.30;76.80;;;;;;4995631;28;20141;-86
2021/06/25 08:20:27;;;;;;;15.80;11.73;;;16.30;76.70;;;;;;4995079;28;20256;-86
2021/06/25 08:22:57;;;;;;;20.70;11.68;;;16.40;76.50;;;;;;4995204;28;20475;-87
2021/06/25 08:25:27;;;;;;;17.25;10.90;;;16.40;76.40;;;;;;4995696;28;20058;-88
2021/06/25 08:27:58;;;;;;;13.27;11.15;;;16.40;76.20;;;;;;4995824;28;20081;-90
2021/06/25 08:30:26;;;;;;;14.88;11.20;;;16.50;76.10;;;;;;5009055;28;20046;-88
2021/06/25 08:32:56;;;;;;;14.82;12.15;;;16.60;75.80;;;;;;4995731;28;20048;-85
2021/06/25 08:35:28;;;;;;;21.58;11.77;;;16.60;76.00;;;;;;4996591;28;20096;-86
2021/06/25 08:37:55;;;;;;;15.45;11.32;;;16.60;76.00;;;;;;4995281;28;20045;-88
2021/06/25 08:40:25;;;;;;;14.45;12.07;;;16.60;76.20;;;;;;4995800;28;20064;-88
2021/06/25 08:42:59;;;;;;;16.13;12.63;;;16.60;76.30;;;;;;4996141;28;20058;-89
2021/06/25 08:45:37;;;;;;;16.45;12.25;;;16.50;76.50;;;;;;4995548;28;20058;-90
2021/06/25 08:48:07;;;;;;;18.25;12.68;;;16.60;76.80;;;;;;4995446;28;20108;-91
2021/06/25 08:50:44;;;;;;;22.02;11.50;;;16.60;77.10;;;;;;4995488;28;20492;-88
2021/06/25 08:53:22;;;;;;;16.55;11.60;;;16.60;77.20;;;;;;4996896;28;20104;-88
2021/06/25 08:56:19;;;;;;;16.77;11.40;;;16.50;77.50;;;;;;4971080;28;20702;-88
2021/06/25 08:58:50;;;;;;;17.55;11.00;;;16.50;77.60;;;;;;4994753;28;20069;-87
2021/06/25 09:01:19;;;;;;;16.95;11.18;;;16.40;77.70;;;;;;4994947;28;20109;-85
2021/06/25 09:03:52;;;;;;;14.93;11.00;;;16.40;77.80;;;;;;4994962;28;20050;-86
2021/06/25 09:06:20;;;;;;;15.02;10.27;;;16.40;77.90;;;;;;4994554;28;20050;-86
2021/06/25 09:08:47;;;;;;;17.50;10.38;;;16.40;77.90;;;;;;4999206;28;20053;-86
2021/06/25 09:11:32;;;;;;;11.95;9.40;;;16.30;77.70;;;;;;5011373;28;20073;-86
2021/06/25 09:14:07;;;;;;;19.38;9.57;;;16.30;77.80;;;;;;5013250;28;20050;-87
2021/06/25 09:16:38;;;;;;;14.65;8.90;;;16.30;78.00;;;;;;5014840;28;20042;-87
2021/06/25 09:19:09;;;;;;;12.45;7.32;;;16.20;78.10;;;;;;5014646;28;20080;-87
2021/06/25 09:21:42;;;;;;;10.88;7.97;;;16.20;78.20;;;;;;5014564;28;20088;-87
2021/06/25 09:24:23;;;;;;;9.95;7.38;;;16.20;78.30;;;;;;5014382;28;20069;-86
2021/06/25 09:27:00;;;;;;;9.13;6.88;;;16.20;78.60;;;;;;5014192;28;20124;-84
2021/06/25 09:29:33;;;;;;;14.88;6.85;;;16.20;78.70;;;;;;5013277;28;20126;-85
2021/06/25 09:32:12;;;;;;;10.07;6.97;;;16.10;78.60;;;;;;5012451;28;20050;-86
2021/06/25 09:34:49;;;;;;;9.80;7.32;;;16.10;78.70;;;;;;4998427;28;20049;-86
2021/06/25 09:37:18;;;;;;;10.20;7.53;;;16.20;79.20;;;;;;4998039;28;20077;-87
2021/06/25 09:40:13;;;;;;;11.43;7.50;;;16.20;79.60;;;;;;4998411;28;20577;-87
2021/06/25 09:43:07;;;;;;;9.98;7.85;;;16.20;80.00;;;;;;5013724;28;20057;-87
2021/06/25 09:45:35;;;;;;;10.77;8.25;;;16.30;80.40;;;;;;4998093;28;20491;-86
2021/06/25 09:48:03;;;;;;;11.68;8.48;;;16.30;80.50;;;;;;4998477;28;20074;-87
2021/06/25 09:50:32;;;;;;;11.50;8.32;;;16.30;80.50;;;;;;4997702;28;20050;-86
2021/06/25 09:53:04;;;;;;;11.27;8.82;;;16.40;80.50;;;;;;4998268;28;20058;-86
2021/06/25 09:55:49;;;;;;;15.52;9.15;;;16.40;80.50;;;;;;4998259;28;20141;-89
2021/06/25 10:01:24;;;;;;;12.27;9.20;;;16.40;80.40;;;;;;5024793;28;20578;-85
2021/06/25 10:04:00;;;;;;;14.15;9.65;;;16.30;80.40;;;;;;5037575;28;20060;-87
2021/06/25 10:06:31;;;;;;;12.07;9.38;;;16.40;80.60;;;;;;5036847;28;20526;-87
2021/06/25 10:08:59;;;;;;;12.25;9.02;;;16.40;80.70;;;;;;5021903;28;20099;-86
2021/06/25 10:11:31;;;;;;;16.88;10.48;;;16.40;80.70;;;;;;5017891;28;20080;-85
2021/06/25 10:14:02;;;;;;;12.50;10.10;;;16.40;80.80;;;;;;5017424;28;20502;-84
2021/06/25 10:16:32;;;;;;;14.18;10.07;;;16.40;80.70;;;;;;5034714;28;20124;-88
2021/06/25 10:19:11;;;;;;;13.85;9.13;;;16.50;80.70;;;;;;5017179;28;20045;-88
2021/06/25 10:21:38;;;;;;;13.77;8.95;;;16.50;80.70;;;;;;5017234;28;20061;-87
2021/06/25 10:24:06;;;;;;;16.40;8.95;;;16.50;80.70;;;;;;5033894;28;20562;-86
2021/06/25 10:26:33;;;;;;;11.57;8.48;;;16.50;80.70;;;;;;5016939;28;20068;-85
2021/06/25 10:29:03;;;;;;;9.85;7.72;;;16.60;80.70;;;;;;5016506;28;20509;-87
2021/06/25 10:31:31;;;;;;;10.13;7.65;;;16.60;80.60;;;;;;5013551;28;20133;-88
2021/06/25 10:33:58;;;;;;;9.27;6.97;;;16.70;80.50;;;;;;4997314;28;20046;-85
2021/06/25 10:36:31;;;;;;;10.02;7.25;;;16.70;80.40;;;;;;4996879;28;20129;-85
2021/06/25 10:39:09;;;;;;;11.93;6.97;;;16.70;80.40;;;;;;4996908;28;20502;-87
2021/06/25 10:41:52;;;;;;;10.65;7.60;;;16.80;80.50;;;;;;4996817;28;20045;-84
2021/06/25 10:44:35;;;;;;;11.07;7.63;;;16.80;80.50;;;;;;4995779;28;20042;-86
2021/06/25 10:50:30;;;;;;;13.85;7.80;;;16.90;80.60;;;;;;4916048;29;20048;-90
2021/06/25 10:53:59;;;;;;;19.17;9.07;;;17.00;80.70;;;;;;4902825;29;20048;-89
2021/06/25 10:57:31;;;;;;;9.93;7.38;;;17.10;80.80;;;;;;4900686;29;20060;-89
2021/06/25 11:00:12;;;;;;;;;;;;;;;;;;;;;
2021/06/25 11:02:55;;;;;;;11.85;7.95;;;17.30;81.10;;;;;;4896625;29;20076;-87
2021/06/25 11:05:25;;;;;;;10.20;7.18;;;17.40;81.10;;;;;;4896691;29;20530;-89
2021/06/25 11:07:56;;;;;;;10.80;7.05;;;17.40;81.10;;;;;;4898666;29;20052;-88
2021/06/25 11:10:24;;;;;;;9.68;7.07;;;17.40;80.90;;;;;;4914866;29;20079;-85
2021/06/25 11:13:13;;;;;;;9.60;6.60;;;17.40;80.80;;;;;;4914895;29;20542;-85
2021/06/25 11:15:41;;;;;;;9.70;7.22;;;17.50;80.80;;;;;;4914898;29;20048;-85
2021/06/25 11:18:28;;;;;;;9.90;6.88;;;17.50;80.60;;;;;;4899495;29;20052;-85
2021/06/25 11:21:08;;;;;;;8.50;6.70;;;17.50;80.40;;;;;;4900573;29;20104;-88
2021/06/25 11:23:38;;;;;;;10.93;6.43;;;17.50;80.20;;;;;;4915187;29;20151;-85
2021/06/25 11:26:24;;;;;;;9.57;7.57;;;17.50;80.30;;;;;;4921244;28;20134;-85
2021/06/25 11:29:08;;;;;;;9.52;6.78;;;17.60;80.50;;;;;;5001895;28;20130;-85
2021/06/25 11:31:36;;;;;;;11.15;7.43;;;17.60;80.70;;;;;;5015597;28;20479;-85
2021/06/25 11:34:04;;;;;;;10.95;6.75;;;17.60;80.90;;;;;;5015572;28;20100;-86
2021/06/25 11:36:53;;;;;;;9.85;6.53;;;17.70;80.90;;;;;;5034387;28;20095;-86
2021/06/25 11:39:27;;;;;;;10.77;6.95;;;17.70;80.80;;;;;;5035433;28;20052;-84
2021/06/25 11:42:00;;;;;;;7.97;6.38;;;17.80;80.50;;;;;;5023627;28;20576;-86
2021/06/25 11:44:33;;;;;;;11.05;6.03;;;17.80;80.10;;;;;;5015777;28;20570;-85
2021/06/25 11:47:02;;;;;;;8.15;6.53;;;17.80;79.80;;;;;;5015613;28;20073;-85
2021/06/25 11:49:46;;;;;;;8.43;6.40;;;17.80;79.50;;;;;;5015188;28;20565;-87
2021/06/25 11:52:18;;;;;;;;;;;17.80;79.40;;;;;;5016040;28;20499;-88
2021/06/25 11:54:58;;;;;;;8.80;6.15;;;17.80;79.20;;;;;;5015246;28;19921;-86
2021/06/25 11:57:28;;;;;;;14.45;6.75;;;17.70;78.70;;;;;;5015133;28;20136;-87
2021/06/25 11:59:59;;;;;;;11.85;6.20;;;17.70;78.60;;;;;;5015952;28;20094;-89
2021/06/25 12:02:30;;;;;;;8.85;5.95;;;17.70;78.60;;;;;;5016337;28;20132;-87
2021/06/25 12:05:00;;;;;;;9.13;6.47;;;17.80;78.70;;;;;;5016754;28;20068;-84
2021/06/25 12:07:27;;;;;;;13.52;7.53;;;17.70;78.80;;;;;;5015622;28;20049;-88
2021/06/25 12:09:54;;;;;;;10.32;6.95;;;17.70;78.60;;;;;;4996966;28;20537;-86
2021/06/25 12:12:26;;;;;;;9.23;6.63;;;17.70;78.70;;;;;;4996215;28;20042;-86
2021/06/25 12:15:00;;;;;;;11.20;6.35;;;17.70;78.80;;;;;;4996137;28;20419;-87
2021/06/25 12:17:48;;;;;;;11.00;7.13;;;17.70;78.90;;;;;;4996134;28;20492;-84
2021/06/25 12:20:31;;;;;;;9.57;7.00;;;17.70;79.10;;;;;;4995979;28;20415;-87
2021/06/25 12:23:05;;;;;;;11.40;7.03;;;17.70;79.10;;;;;;5013494;28;20060;-86
2021/06/25 12:25:52;;;;;;;12.82;6.93;;;17.70;79.20;;;;;;4996286;28;20301;-87
2021/06/25 12:29:26;;;;;;;11.88;8.18;;;17.60;79.40;;;;;;4997565;28;20096;-90
2021/06/25 12:32:35;;;;;;;10.45;7.32;;;17.60;79.40;;;;;;4870322;29;20147;-89
2021/06/25 12:35:15;;;;;;;12.30;7.30;;;17.60;79.70;;;;;;4862375;29;20542;-89
2021/06/25 12:39:22;;;;;;;;;;;;;;;;;;;;;
2021/06/25 12:42:36;;;;;;;15.60;8.23;;;17.60;80.00;;;;;;4804179;29;20078;-87
2021/06/25 12:49:42;;;;;;;;;;;;;;;;;;;;;
2021/06/25 12:52:46;;;;;;;;;;;;;;;;;;;;;
2021/06/25 12:55:31;;;;;;;;;;;17.40;80.40;;;;;;4786133;29;20050;-88
2021/06/25 12:58:19;;;;;;;9.27;6.37;;;17.40;80.40;;;;;;4778768;29;19928;-88
2021/06/25 13:01:05;;;;;;;10.65;6.60;;;17.40;80.50;;;;;;4820125;29;20535;-88
2021/06/25 13:03:50;;;;;;;9.75;6.88;;;17.40;80.60;;;;;;4835014;29;20057;-88
2021/06/25 13:06:47;;;;;;;;;;;;;;;;;;;;;
2021/06/25 13:10:08;;;;;;;10.13;7.13;;;17.30;80.70;;;;;;4893196;29;20128;-88
2021/06/25 13:12:40;;;;;;;10.50;6.47;;;17.40;80.80;;;;;;4903092;29;20052;-88
2021/06/25 13:15:42;;;;;;;10.60;7.47;;;17.30;80.90;;;;;;4921379;29;20052;-89
2021/06/25 13:18:37;;;;;;;11.13;7.47;;;17.30;80.90;;;;;;4923663;29;20071;-89
2021/06/25 13:21:28;;;;;;;10.70;7.20;;;17.30;80.80;;;;;;4937284;29;20066;-87
2021/06/25 13:24:16;;;;;;;13.25;7.13;;;17.30;80.80;;;;;;4921358;29;20052;-88
2021/06/25 13:27:10;;;;;;;10.43;6.82;;;17.20;80.80;;;;;;5055845;28;20064;-91